Time;durP1;ratioP1;P1;durP2;ratioP2;P2;SDS_P1;SDS_P2;PMS_P1;PMS_P2;Temp;Humidity;BMP_temperature;BMP_pressure;BME280_temperature;BME280_humidity;BME280_pressure;Samples;Min_cycle;Max_cycle;Signal;HPM_P1;HPM_P2
2024/03/09 00:05:13;;;;;;;8.10;5.50;;;;;;;1.47;89.43;95783.59;110598;1273;22828;-72
2024/03/09 00:08:09;;;;;;;12.20;6.00;;;;;;;1.47;89.43;95781.52;110596;1273;22096;-72
2024/03/09 00:11:17;;;;;;;13.00;7.40;;;;;;;1.49;89.38;95776.53;110614;1273;22146;-72
2024/03/09 00:14:26;;;;;;;9.80;6.00;;;;;;;1.46;89.18;95777.69;110634;1273;22800;-71
2024/03/09 00:18:00;;;;;;;;;;;;;;;;;;;;;
2024/03/09 00:20:50;;;;;;;10.00;5.60;;;;;;;1.47;89.35;95772.84;110629;1273;22275;-71
2024/03/09 00:23:59;;;;;;;9.90;6.00;;;;;;;1.48;89.22;95770.08;110614;1274;22108;-71
2024/03/09 00:27:24;;;;;;;;;;;;;;;;;;;;;
2024/03/09 00:30:28;;;;;;;;;;;;;;;;;;;;;
2024/03/09 00:33:48;;;;;;;;;;;;;;;;;;;;;
2024/03/09 00:36:38;;;;;;;9.30;5.50;;;;;;;1.46;89.49;95765.70;110614;1273;22088;-71
2024/03/09 00:40:18;;;;;;;9.20;5.30;;;;;;;1.46;89.87;95760.15;110645;1273;22144;-71
2024/03/09 00:43:09;;;;;;;9.90;5.30;;;;;;;1.45;90.57;95757.20;110353;1275;22965;-71
2024/03/09 00:46:28;;;;;;;9.30;5.40;;;;;;;1.43;89.90;95757.17;110480;1275;22164;-72
2024/03/09 00:49:52;;;;;;;11.40;6.30;;;;;;;1.44;90.14;95754.94;110562;1275;22126;-71
2024/03/09 00:52:25;;;;;;;11.90;6.60;;;;;;;1.49;90.06;95757.80;110586;1275;22130;-72
2024/03/09 00:55:19;;;;;;;9.70;5.90;;;;;;;1.55;90.22;95757.20;110514;1274;22846;-71
2024/03/09 00:58:01;;;;;;;11.70;6.10;;;;;;;1.59;90.64;95759.52;110575;1275;22117;-72
2024/03/09 01:00:46;;;;;;;15.10;7.50;;;;;;;1.62;90.65;95761.00;110589;1274;22109;-71
2024/03/09 01:03:35;;;;;;;17.60;10.70;;;;;;;1.64;90.58;95757.73;110580;1275;22091;-71
2024/03/09 01:06:07;;;;;;;14.70;9.00;;;;;;;1.66;90.52;95756.88;110579;1275;22219;-72
2024/03/09 01:09:08;;;;;;;15.60;8.50;;;;;;;1.65;90.44;95758.11;110580;1275;22150;-71
2024/03/09 01:12:07;;;;;;;11.40;7.10;;;;;;;1.69;90.59;95757.30;110550;1274;22108;-71
2024/03/09 01:14:36;;;;;;;10.20;6.60;;;;;;;1.76;90.57;95757.24;110591;1274;22165;-71
2024/03/09 01:17:50;;;;;;;13.20;7.30;;;;;;;1.78;90.66;95753.13;110585;1275;22241;-72
2024/03/09 01:20:42;;;;;;;12.10;7.10;;;;;;;1.81;90.77;95750.40;110482;1274;22169;-72
2024/03/09 01:24:12;;;;;;;11.10;6.20;;;;;;;1.83;90.55;95751.48;110601;1275;22213;-71
2024/03/09 01:26:40;;;;;;;10.80;6.20;;;;;;;1.86;90.37;95750.14;110461;1275;22114;-73
2024/03/09 01:29:25;;;;;;;9.40;6.00;;;;;;;1.90;90.40;95747.96;110605;1274;22106;-71
2024/03/09 01:32:05;;;;;;;11.00;6.50;;;;;;;1.90;90.47;95746.05;110593;1275;22101;-72
2024/03/09 01:34:37;;;;;;;12.60;7.40;;;;;;;1.89;90.77;95745.16;110623;1274;22921;-72
2024/03/09 01:40:54;;;;;;;16.20;9.10;;;;;;;1.91;90.74;95742.59;110545;1274;23161;-71
2024/03/09 01:43:56;;;;;;;16.60;8.90;;;;;;;1.95;90.86;95743.20;110632;1273;22171;-71
2024/03/09 01:47:30;;;;;;;14.40;8.90;;;;;;;1.99;90.76;95735.63;110646;1273;22181;-72
2024/03/09 01:50:15;;;;;;;18.30;9.20;;;;;;;1.95;90.94;95736.60;110541;1273;22288;-71
2024/03/09 01:53:08;;;;;;;19.30;11.40;;;;;;;1.95;91.00;95737.81;110650;1273;22121;-72
2024/03/09 01:55:49;;;;;;;;;;;;;;;;;;;;;
2024/03/09 01:59:21;;;;;;;17.80;8.90;;;;;;;2.00;90.77;95734.94;110616;1273;22177;-71
2024/03/09 02:02:09;;;;;;;14.70;8.70;;;;;;;1.99;90.75;95726.43;110567;1273;23038;-71
2024/03/09 02:05:20;;;;;;;14.00;8.20;;;;;;;1.99;90.72;95726.27;110624;1273;22233;-71
2024/03/09 02:08:07;;;;;;;15.60;9.10;;;;;;;2.00;90.70;95724.36;110640;1273;22282;-72
2024/03/09 02:11:05;;;;;;;18.50;9.00;;;;;;;1.98;90.67;95725.19;110610;1273;22143;-72
2024/03/09 02:14:24;;;;;;;13.50;7.90;;;;;;;1.96;90.69;95720.65;110638;1273;22892;-72
2024/03/09 02:17:17;;;;;;;;;;;;;;;;;;;;;
2024/03/09 02:20:00;;;;;;;13.60;7.70;;;;;;;2.00;90.68;95724.70;110595;1273;22304;-72
2024/03/09 02:22:35;;;;;;;15.90;8.40;;;;;;;1.98;90.87;95723.97;110652;1273;22088;-72
2024/03/09 02:25:40;;;;;;;15.70;9.60;;;;;;;1.94;90.86;95720.62;110608;1273;22121;-71
2024/03/09 02:28:23;;;;;;;;;;;;;;;;;;;;;
2024/03/09 02:31:02;;;;;;;17.30;10.70;;;;;;;1.93;91.11;95720.08;110651;1274;22113;-72
2024/03/09 02:33:34;;;;;;;23.80;11.60;;;;;;;1.94;91.13;95721.81;110645;1273;22106;-72
2024/03/09 02:36:48;;;;;;;;;;;;;;;;;;;;;
2024/03/09 02:40:53;;;;;;;21.90;12.10;;;;;;;1.97;91.30;95721.53;110649;1274;22848;-72
2024/03/09 02:43:08;;;;;;;25.10;12.50;;;;;;;2.00;91.35;95720.03;110558;1274;22922;-71
2024/03/09 02:45:49;;;;;;;25.80;14.40;;;;;;;2.02;91.29;95718.84;110638;1266;22094;-71
2024/03/09 02:49:04;;;;;;;25.10;14.30;;;;;;;2.04;91.11;95718.70;110600;1273;22118;-71
2024/03/09 02:52:08;;;;;;;;;;;;;;;;;;;;;
2024/03/09 02:55:04;;;;;;;23.90;14.00;;;;;;;2.02;91.07;95716.94;110618;1274;22200;-72
2024/03/09 02:57:33;;;;;;;23.20;12.70;;;;;;;2.07;91.27;95713.37;110634;1273;22164;-72
2024/03/09 03:01:49;;;;;;;19.70;11.10;;;;;;;2.11;91.20;95711.34;110488;1273;22108;-71
2024/03/09 03:05:13;;;;;;;16.50;9.60;;;;;;;2.06;90.60;95712.84;110635;1259;22108;-72
2024/03/09 03:08:14;;;;;;;18.90;11.00;;;;;;;2.01;90.85;95712.75;110452;1274;22164;-71
2024/03/09 03:12:07;;;;;;;11.80;7.80;;;;;;;1.99;91.01;95710.46;110621;1273;22085;-71
2024/03/09 03:15:04;;;;;;;;;;;;;;;;;;;;;
2024/03/09 03:17:58;;;;;;;12.80;8.00;;;;;;;2.04;91.51;95710.02;110629;1273;22115;-72
2024/03/09 03:21:39;;;;;;;16.60;9.90;;;;;;;2.07;91.39;95711.98;110608;1273;22123;-71
2024/03/09 03:24:25;;;;;;;15.00;9.30;;;;;;;2.06;91.19;95706.40;110472;1274;22168;-72
2024/03/09 03:27:57;;;;;;;16.60;7.60;;;;;;;2.06;91.40;95705.38;110636;1273;22131;-72
2024/03/09 03:31:10;;;;;;;9.70;5.90;;;;;;;2.05;91.05;95707.77;110537;1273;22993;-71
2024/03/09 03:34:21;;;;;;;8.80;5.70;;;;;;;2.05;91.19;95707.61;110482;1273;22127;-71
2024/03/09 03:37:41;;;;;;;;;;;;;;;;;;;;;
2024/03/09 03:40:33;;;;;;;7.50;5.20;;;;;;;2.03;91.35;95701.50;110637;1274;22941;-72
2024/03/09 03:44:14;;;;;;;;;;;;;;;;;;;;;
2024/03/09 03:46:59;;;;;;;11.10;6.00;;;;;;;2.05;91.24;95700.50;110609;1274;22578;-71
2024/03/09 03:50:12;;;;;;;11.50;6.80;;;;;;;2.06;91.35;95702.42;110603;1273;22101;-71
2024/03/09 03:53:12;;;;;;;13.20;7.70;;;;;;;2.09;91.33;95700.72;110639;1274;22918;-71
2024/03/09 03:56:39;;;;;;;;;;;;;;;;;;;;;
2024/03/09 03:59:29;;;;;;;20.30;12.30;;;;;;;2.08;90.93;95699.16;110611;1273;22104;-71
2024/03/09 04:02:33;;;;;;;;;;;;;;;;;;;;;
2024/03/09 04:05:33;;;;;;;12.90;7.50;;;;;;;2.02;90.88;95704.10;110627;1274;22161;-71
2024/03/09 04:08:30;;;;;;;11.00;6.80;;;;;;;2.01;90.64;95696.42;110608;1273;22188;-72
2024/03/09 04:12:11;;;;;;;13.60;7.20;;;;;;;1.97;90.57;95699.67;110609;1274;22882;-71
2024/03/09 04:15:00;;;;;;;;;;;;;;;;;;;;;
2024/03/09 04:18:13;;;;;;;19.40;10.80;;;;;;;1.94;91.44;95702.04;110620;1273;22854;-72
2024/03/09 04:20:56;;;;;;;;;;;;;;;1.93;91.42;95701.88;110641;1274;22957;-72
2024/03/09 04:24:25;;;;;;;18.80;10.30;;;;;;;1.89;91.30;95700.41;110616;1273;22140;-72
2024/03/09 04:31:44;;;;;;;;;;;;;;;;;;;;;
2024/03/09 04:34:26;;;;;;;22.50;10.90;;;;;;;1.91;91.86;95706.50;110613;1273;22174;-71
2024/03/09 04:38:01;;;;;;;13.50;6.90;;;;;;;1.93;91.56;95704.81;110598;1273;22094;-72
2024/03/09 04:44:45;;;;;;;11.60;6.00;;;;;;;1.96;91.54;95700.17;110507;1274;22881;-72
2024/03/09 04:47:45;;;;;;;;;;;;;;;1.95;91.51;95694.79;110438;1274;23105;-71
2024/03/09 04:50:52;;;;;;;24.00;11.00;;;;;;;1.88;91.49;95699.70;110584;1274;22100;-71
2024/03/09 04:54:21;;;;;;;18.80;9.70;;;;;;;1.85;91.53;95701.39;110626;1274;22785;-72
2024/03/09 04:57:38;;;;;;;16.90;9.80;;;;;;;1.85;91.52;95706.07;110598;1274;22083;-72
2024/03/09 05:01:00;;;;;;;11.20;6.90;;;;;;;1.86;91.50;95702.79;110616;1273;22091;-71
2024/03/09 05:04:38;;;;;;;22.30;12.80;;;;;;;1.85;91.32;95701.91;110628;1263;22109;-72
2024/03/09 05:07:41;;;;;;;23.70;11.00;;;;;;;1.85;91.61;95703.63;110518;1274;22131;-71
2024/03/09 05:10:55;;;;;;;26.60;14.90;;;;;;;1.89;91.73;95701.45;110615;1273;22127;-72
2024/03/09 05:13:49;;;;;;;24.60;14.00;;;;;;;1.92;91.70;95708.27;110628;1273;22121;-71
2024/03/09 05:17:08;;;;;;;19.80;12.20;;;;;;;1.95;91.54;95706.92;110643;1273;22110;-72
2024/03/09 05:20:22;;;;;;;16.10;9.40;;;;;;;1.88;90.88;95705.95;110599;1274;22791;-71
2024/03/09 05:24:00;;;;;;;32.10;16.50;;;;;;;1.80;90.93;95706.15;110613;1274;22249;-72
2024/03/09 05:27:20;;;;;;;19.40;10.50;;;;;;;1.77;90.88;95709.23;110612;1274;22278;-71
2024/03/09 05:30:50;;;;;;;;;;;;;;;;;;;;;
2024/03/09 05:33:42;;;;;;;28.70;15.80;;;;;;;1.81;91.43;95703.73;110451;1274;22091;-71
2024/03/09 05:36:55;;;;;;;;;;;;;;;;;;;;;
2024/03/09 05:40:05;;;;;;;;;;;;;;;;;;;;;
2024/03/09 05:43:08;;;;;;;28.80;16.10;;;;;;;1.90;91.43;95707.71;110633;1263;22325;-72
2024/03/09 05:46:30;;;;;;;;;;;;;;;;;;;;;
2024/03/09 05:50:11;;;;;;;67.30;36.80;;;;;;;2.00;91.65;95711.52;110637;1274;22223;-72
2024/03/09 05:53:26;;;;;;;62.10;34.20;;;;;;;2.05;91.71;95712.98;110473;1273;22819;-72
2024/03/09 05:56:56;;;;;;;57.80;32.80;;;;;;;2.11;91.71;95710.83;110628;1273;22118;-72
2024/03/09 05:59:47;;;;;;;50.20;27.60;;;;;;;2.18;91.83;95711.11;110494;1274;22187;-71
2024/03/09 06:02:42;;;;;;;52.90;31.00;;;;;;;2.23;91.72;95709.27;110626;1273;22176;-71
2024/03/09 06:05:37;;;;;;;33.90;20.00;;;;;;;2.26;91.45;95715.05;110576;1273;22957;-71
2024/03/09 06:08:33;;;;;;;27.00;15.90;;;;;;;2.29;91.49;95710.59;110522;1273;22162;-72
2024/03/09 06:11:35;;;;;;;19.10;11.00;;;;;;;2.33;91.33;95707.35;110634;1273;22813;-72
2024/03/09 06:15:17;;;;;;;;;;;;;;;;;;;;;
2024/03/09 06:18:25;;;;;;;14.10;7.00;;;;;;;2.46;91.29;95712.74;110639;1273;22165;-71
2024/03/09 06:21:22;;;;;;;12.80;6.80;;;;;;;2.54;91.19;95713.20;110632;1274;22119;-72
2024/03/09 06:24:00;;;;;;;;;;;;;;;;;;;;;
2024/03/09 06:26:34;;;;;;;13.50;8.80;;;;;;;2.73;91.58;95710.34;110605;1273;22079;-71
2024/03/09 06:29:08;;;;;;;13.60;8.90;;;;;;;2.83;91.35;95705.95;110617;1273;22114;-72
2024/03/09 06:31:43;;;;;;;13.70;9.50;;;;;;;2.90;90.96;95707.60;110662;1273;22168;-71
2024/03/09 06:34:15;;;;;;;14.50;8.50;;;;;;;3.00;91.09;95708.27;110637;1274;22768;-72
2024/03/09 06:36:55;;;;;;;12.70;8.10;;;;;;;3.09;90.64;95708.36;110611;1273;22093;-72
2024/03/09 06:40:04;;;;;;;15.40;9.10;;;;;;;3.17;90.52;95707.42;110646;1274;22136;-71
2024/03/09 06:42:58;;;;;;;15.30;9.30;;;;;;;3.27;90.42;95706.66;110631;1273;22130;-72
2024/03/09 06:45:29;;;;;;;13.60;8.60;;;;;;;3.39;90.46;95710.62;110525;1273;22345;-71
2024/03/09 06:48:23;;;;;;;14.40;9.20;;;;;;;3.50;90.33;95707.10;110624;1274;22197;-71
2024/03/09 06:50:58;;;;;;;14.50;9.10;;;;;;;3.60;90.20;95704.75;110639;1273;22114;-71
2024/03/09 06:53:41;;;;;;;14.10;9.00;;;;;;;3.71;89.81;95702.77;110637;1274;22107;-71
2024/03/09 06:56:15;;;;;;;15.10;9.40;;;;;;;3.82;89.83;95703.58;110624;1274;23057;-72
2024/03/09 06:59:07;;;;;;;15.80;8.80;;;;;;;3.94;89.39;95705.08;110634;1273;22122;-71
2024/03/09 07:01:38;;;;;;;14.80;8.90;;;;;;;4.01;88.46;95707.23;110649;1274;22755;-72
2024/03/09 07:04:21;;;;;;;15.00;8.40;;;;;;;4.12;88.82;95705.23;110593;1273;23036;-72
2024/03/09 07:07:03;;;;;;;;;;;;;;;;;;;;;
2024/03/09 07:09:52;;;;;;;;;;;;;;;;;;;;;
2024/03/09 07:12:43;;;;;;;10.80;7.20;;;;;;;4.45;87.81;95704.25;110631;1274;23001;-72
2024/03/09 07:15:32;;;;;;;12.00;7.30;;;;;;;4.57;87.39;95699.45;110648;1274;22171;-72
2024/03/09 07:18:24;;;;;;;12.70;7.80;;;;;;;4.73;87.36;95696.23;110649;1274;22125;-72
2024/03/09 07:21:23;;;;;;;;;;;;;;;;;;;;;
2024/03/09 07:24:06;;;;;;;;;;;;;;;;;;;;;
2024/03/09 07:26:55;;;;;;;10.90;7.20;;;;;;;4.99;84.27;95688.36;110654;1251;22415;-71
2024/03/09 07:29:35;;;;;;;10.20;6.40;;;;;;;5.11;84.99;95687.35;110615;1271;22108;-72
2024/03/09 07:32:06;;;;;;;12.30;7.30;;;;;;;5.21;84.28;95688.42;110627;1274;22220;-72
2024/03/09 07:35:14;;;;;;;12.10;7.20;;;;;;;5.27;83.25;95688.46;110597;1274;22213;-72
2024/03/09 07:37:58;;;;;;;9.10;6.70;;;;;;;5.32;82.25;95689.70;110613;1274;22164;-72
2024/03/09 07:41:09;;;;;;;9.60;6.10;;;;;;;5.43;82.65;95690.77;110609;1273;22351;-72
2024/03/09 07:43:50;;;;;;;8.20;5.90;;;;;;;5.49;80.59;95691.48;110612;1274;22854;-72
2024/03/09 07:46:22;;;;;;;8.00;5.90;;;;;;;5.60;81.91;95687.33;110610;1274;22285;-72
2024/03/09 07:48:51;;;;;;;7.40;5.60;;;;;;;5.71;82.09;95686.46;110625;1274;22134;-71
2024/03/09 07:51:20;;;;;;;11.70;6.40;;;;;;;5.85;81.83;95685.45;110580;1275;22224;-72
2024/03/09 07:54:20;;;;;;;7.80;5.80;;;;;;;5.98;80.65;95684.62;110588;1274;22105;-72
2024/03/09 07:57:11;;;;;;;9.20;6.00;;;;;;;6.14;81.17;95683.92;106175;1274;22092;-72
2024/03/09 07:59:40;;;;;;;10.00;6.10;;;;;;;6.25;79.48;95684.10;110601;1274;22834;-72
2024/03/09 08:02:13;;;;;;;8.70;6.20;;;;;;;6.36;78.98;95682.88;110637;1274;22214;-72
2024/03/09 08:04:54;;;;;;;7.30;5.10;;;;;;;6.44;78.60;95681.11;110470;1274;22127;-73
2024/03/09 08:07:26;;;;;;;8.90;6.40;;;;;;;6.54;78.10;95680.05;110617;1274;22479;-72
2024/03/09 08:09:54;;;;;;;8.20;6.00;;;;;;;6.63;77.83;95679.69;110621;1274;22094;-72
2024/03/09 08:12:50;;;;;;;7.50;5.80;;;;;;;6.67;76.34;95676.89;110599;1274;22851;-72
2024/03/09 08:15:23;;;;;;;10.60;6.20;;;;;;;6.74;76.71;95674.08;110603;1274;22118;-72
2024/03/09 08:18:01;;;;;;;9.60;6.10;;;;;;;6.88;77.11;95672.80;110588;1274;22133;-72
2024/03/09 08:20:50;;;;;;;10.30;6.30;;;;;;;7.05;76.33;95673.27;110641;1274;22887;-71
2024/03/09 08:23:23;;;;;;;8.90;5.90;;;;;;;7.22;76.14;95676.89;110621;1274;22167;-72
2024/03/09 08:25:52;;;;;;;8.60;6.20;;;;;;;7.36;75.49;95676.30;110612;1274;22118;-72
2024/03/09 08:28:24;;;;;;;8.30;5.70;;;;;;;7.43;74.31;95676.78;110602;1274;22088;-72
2024/03/09 08:31:13;;;;;;;8.80;5.90;;;;;;;7.36;72.79;95675.41;110464;1274;22124;-72
2024/03/09 08:33:43;;;;;;;8.90;7.00;;;;;;;7.30;72.40;95671.60;110613;1274;22145;-72
2024/03/09 08:36:38;;;;;;;9.70;6.90;;;;;;;7.41;72.43;95680.12;110614;1275;22117;-72
2024/03/09 08:39:25;;;;;;;10.40;7.30;;;;;;;7.45;71.83;95680.80;110613;1274;22107;-72
2024/03/09 08:42:31;;;;;;;10.80;6.90;;;;;;;7.27;71.38;95678.44;110610;1274;22128;-75
2024/03/09 08:45:40;;;;;;;;;;;;;;;;;;;;;
2024/03/09 08:48:12;;;;;;;8.60;5.60;;;;;;;7.64;70.75;95673.17;110610;1274;22112;-72
2024/03/09 08:50:43;;;;;;;5.40;3.70;;;;;;;7.77;69.86;95668.18;110635;1274;22130;-72
2024/03/09 08:53:17;;;;;;;6.80;5.20;;;;;;;7.79;68.28;95666.41;110649;1271;22163;-71
2024/03/09 08:55:56;;;;;;;7.20;5.50;;;;;;;8.00;69.91;95666.27;110599;1274;22104;-72
2024/03/09 08:58:24;;;;;;;8.40;5.60;;;;;;;8.23;68.93;95658.04;110623;1274;22225;-72
2024/03/09 09:00:53;;;;;;;7.40;5.40;;;;;;;8.45;68.03;95656.64;110599;1274;22691;-72
2024/03/09 09:03:23;;;;;;;7.20;5.10;;;;;;;8.66;68.03;95656.09;110634;1274;22231;-72
2024/03/09 09:05:55;;;;;;;7.50;5.70;;;;;;;8.91;67.72;95653.69;110612;1274;22297;-72
2024/03/09 09:08:26;;;;;;;8.70;5.30;;;;;;;9.19;66.69;95651.64;110625;1274;22163;-71
2024/03/09 09:10:55;;;;;;;6.00;5.20;;;;;;;9.36;65.41;95647.03;110651;1274;22205;-72
2024/03/09 09:13:27;;;;;;;6.00;4.90;;;;;;;9.45;63.77;95644.27;110650;1274;22073;-71
2024/03/09 09:15:55;;;;;;;7.00;5.50;;;;;;;9.37;63.52;95643.52;110664;1274;22121;-72
2024/03/09 09:18:27;;;;;;;7.40;5.30;;;;;;;9.23;63.13;95641.41;110624;1274;22073;-72
2024/03/09 09:20:55;;;;;;;6.70;5.10;;;;;;;9.10;64.39;95641.91;110591;1274;22135;-72
2024/03/09 09:23:24;;;;;;;6.20;4.60;;;;;;;8.96;64.21;95642.26;110580;1274;22107;-72
2024/03/09 09:26:01;;;;;;;6.90;4.70;;;;;;;8.81;64.23;95644.88;110648;1274;22136;-72
2024/03/09 09:28:29;;;;;;;6.60;4.30;;;;;;;8.70;64.36;95642.02;110646;1274;22134;-72
2024/03/09 09:30:58;;;;;;;5.70;4.70;;;;;;;8.57;64.79;95643.73;110623;1274;22866;-71
2024/03/09 09:33:29;;;;;;;6.70;4.50;;;;;;;8.50;65.03;95643.80;110653;1274;22097;-72
2024/03/09 09:36:01;;;;;;;6.50;4.90;;;;;;;8.42;65.20;95638.07;110640;1274;22126;-72
2024/03/09 09:38:31;;;;;;;7.70;4.80;;;;;;;8.40;65.46;95639.86;110628;1274;22206;-71
2024/03/09 09:40:59;;;;;;;6.80;4.90;;;;;;;8.63;65.63;95632.27;110626;1274;22175;-72
2024/03/09 09:43:28;;;;;;;6.20;4.40;;;;;;;8.87;65.24;95629.73;110637;1274;22115;-72
2024/03/09 09:45:58;;;;;;;4.80;3.80;;;;;;;9.19;65.77;95624.61;110485;1274;22133;-72
2024/03/09 09:48:40;;;;;;;4.10;3.60;;;;;;;9.38;63.36;95624.00;110643;1274;22098;-72
2024/03/09 09:51:11;;;;;;;5.10;3.90;;;;;;;9.82;65.32;95617.05;110650;1274;22120;-72
2024/03/09 09:53:42;;;;;;;6.10;3.90;;;;;;;10.27;64.42;95618.64;110639;1274;22178;-72
2024/03/09 09:56:10;;;;;;;5.10;4.00;;;;;;;10.64;63.03;95614.81;110648;1274;22107;-71
2024/03/09 09:58:39;;;;;;;4.50;3.10;;;;;;;10.87;59.10;95615.10;110651;1274;22766;-71
2024/03/09 10:01:08;;;;;;;4.00;3.00;;;;;;;10.97;58.80;95615.95;110636;1274;22122;-72
2024/03/09 10:03:36;;;;;;;3.60;3.20;;;;;;;11.17;59.58;95614.85;110638;1274;22336;-71
2024/03/09 10:06:18;;;;;;;3.10;2.60;;;;;;;11.37;57.52;95610.91;110635;1274;22096;-72
2024/03/09 10:08:48;;;;;;;3.30;2.90;;;;;;;11.51;56.53;95609.55;110624;1274;22772;-71
2024/03/09 10:11:17;;;;;;;4.00;2.90;;;;;;;11.73;56.77;95609.76;110622;1274;22184;-71
2024/03/09 10:13:47;;;;;;;4.30;3.00;;;;;;;11.76;53.77;95608.29;110609;1274;22165;-72
2024/03/09 10:16:17;;;;;;;4.70;4.10;;;;;;;11.50;53.46;95610.45;110596;1274;22090;-72
2024/03/09 10:18:48;;;;;;;3.70;2.70;;;;;;;11.46;54.75;95611.95;110610;1273;22109;-72
2024/03/09 10:21:26;;;;;;;2.70;2.50;;;;;;;11.22;54.15;95613.51;110655;1274;22115;-72
2024/03/09 10:24:05;;;;;;;3.60;2.90;;;;;;;11.08;54.01;95609.20;110643;1274;22085;-72
2024/03/09 10:26:36;;;;;;;3.10;2.70;;;;;;;11.22;53.34;95601.20;110644;1274;22127;-72
2024/03/09 10:29:04;;;;;;;4.20;2.60;;;;;;;11.28;54.19;95602.48;110632;1274;22080;-72
2024/03/09 10:31:35;;;;;;;3.10;2.80;;;;;;;11.43;53.60;95596.33;110656;1274;22084;-72
2024/03/09 10:34:08;;;;;;;3.10;2.80;;;;;;;11.65;53.00;95585.98;110641;1274;22113;-71
2024/03/09 10:36:37;;;;;;;4.00;3.10;;;;;;;11.83;53.28;95582.40;110649;1274;22120;-72
2024/03/09 10:39:06;;;;;;;2.60;2.40;;;;;;;12.20;54.15;95576.77;110607;1274;22184;-72
2024/03/09 10:41:40;;;;;;;2.70;2.40;;;;;;;12.51;52.12;95571.19;110625;1274;22788;-71
2024/03/09 10:44:10;;;;;;;3.00;2.50;;;;;;;12.78;52.36;95564.48;110674;1274;22119;-72
2024/03/09 10:46:43;;;;;;;3.50;2.80;;;;;;;12.92;50.35;95561.95;110661;1275;22748;-72
2024/03/09 10:49:12;;;;;;;2.80;2.50;;;;;;;13.03;50.07;95562.35;110653;1274;22814;-72
2024/03/09 10:51:54;;;;;;;3.80;2.50;;;;;;;13.19;50.65;95556.40;110646;1274;22138;-72
2024/03/09 10:54:43;;;;;;;4.20;2.70;;;;;;;13.37;49.64;95551.83;110657;1273;22218;-72
2024/03/09 10:57:21;;;;;;;3.40;3.10;;;;;;;13.58;50.54;95560.07;110622;1274;22145;-72
2024/03/09 10:59:51;;;;;;;3.20;2.70;;;;;;;14.14;49.92;95553.14;110636;1274;22812;-73
2024/03/09 11:02:20;;;;;;;2.90;2.60;;;;;;;14.53;47.44;95549.69;110649;1274;22107;-72
2024/03/09 11:04:52;;;;;;;3.60;2.90;;;;;;;14.83;45.49;95544.59;110651;1273;22138;-72
2024/03/09 11:07:22;;;;;;;2.60;2.40;;;;;;;15.14;44.97;95544.54;110638;1274;22183;-72
2024/03/09 11:09:53;;;;;;;3.80;3.40;;;;;;;15.48;45.19;95540.19;110625;1274;22078;-73
2024/03/09 11:12:22;;;;;;;7.00;5.70;;;;;;;15.46;43.12;95536.23;110670;1274;22123;-72
2024/03/09 11:14:52;;;;;;;3.30;3.00;;;;;;;15.45;41.92;95536.96;110655;1261;22216;-73
2024/03/09 11:17:21;;;;;;;4.40;2.70;;;;;;;14.99;42.74;95540.12;110472;1274;22575;-73
2024/03/09 11:19:56;;;;;;;4.40;4.00;;;;;;;14.99;43.40;95538.31;110659;1274;22248;-73
2024/03/09 11:22:41;;;;;;;4.00;3.00;;;;;;;15.10;42.87;95535.98;110654;1274;22108;-73
2024/03/09 11:25:12;;;;;;;23.80;17.90;;;;;;;14.66;43.08;95536.86;110590;1274;22239;-73
2024/03/09 11:27:44;;;;;;;5.90;5.30;;;;;;;14.40;43.89;95536.52;110637;1274;22709;-73
2024/03/09 11:30:17;;;;;;;3.10;2.70;;;;;;;14.54;45.23;95533.36;110596;1274;22253;-72
2024/03/09 11:32:46;;;;;;;3.20;2.80;;;;;;;15.20;45.35;95528.17;110629;1274;22814;-72
2024/03/09 11:35:32;;;;;;;4.40;3.30;;;;;;;15.74;42.02;95520.95;110576;1267;22195;-73
2024/03/09 11:38:12;;;;;;;3.30;3.00;;;;;;;16.26;40.91;95512.08;110604;1274;22141;-73
2024/03/09 11:40:40;;;;;;;3.90;3.10;;;;;;;16.90;39.45;95505.98;110632;1274;22401;-74
2024/03/09 11:43:14;;;;;;;3.10;2.80;;;;;;;17.05;38.76;95503.14;110678;1274;22097;-73
2024/03/09 11:45:45;;;;;;;3.40;3.00;;;;;;;17.69;38.99;95499.29;110652;1274;22855;-74
2024/03/09 11:48:13;;;;;;;3.30;3.00;;;;;;;17.68;37.08;95500.06;110658;1274;22111;-74
2024/03/09 11:50:42;;;;;;;5.00;2.90;;;;;;;17.38;38.95;95502.52;110650;1274;22078;-74
2024/03/09 11:53:10;;;;;;;3.30;3.00;;;;;;;16.88;39.26;95507.48;110619;1274;22114;-73
2024/03/09 11:55:38;;;;;;;4.30;3.40;;;;;;;16.10;38.36;95504.75;110629;1274;22067;-73
2024/03/09 11:58:07;;;;;;;3.40;3.00;;;;;;;15.53;39.47;95507.05;110655;1274;22167;-73
2024/03/09 12:00:36;;;;;;;3.40;3.00;;;;;;;15.31;40.69;95507.36;110623;1274;22141;-73
2024/03/09 12:03:15;;;;;;;3.20;2.90;;;;;;;15.10;40.75;95507.66;110656;1274;22109;-72
2024/03/09 12:05:43;;;;;;;3.40;3.10;;;;;;;15.63;40.84;95493.33;110648;1274;22256;-73
2024/03/09 12:08:12;;;;;;;3.70;3.10;;;;;;;16.17;40.06;95484.94;110391;1274;22120;-73
2024/03/09 12:10:42;;;;;;;3.30;3.00;;;;;;;15.97;40.42;95487.02;110625;1266;22116;-73
2024/03/09 12:13:12;;;;;;;5.50;3.60;;;;;;;15.51;40.70;95489.39;110610;1274;22850;-73
2024/03/09 12:15:41;;;;;;;3.40;3.00;;;;;;;15.13;41.71;95497.07;110659;1274;22115;-73
2024/03/09 12:18:11;;;;;;;4.00;3.20;;;;;;;14.56;41.90;95499.67;110636;1275;22198;-72
2024/03/09 12:20:41;;;;;;;4.20;3.00;;;;;;;13.86;42.27;95501.34;110603;1274;22125;-72
2024/03/09 12:23:12;;;;;;;4.70;3.60;;;;;;;13.41;43.37;95502.42;110641;1274;22259;-72
2024/03/09 12:25:41;;;;;;;4.30;3.30;;;;;;;13.16;44.41;95508.48;110644;1274;22095;-72
2024/03/09 12:28:10;;;;;;;4.50;3.40;;;;;;;12.96;45.51;95507.30;110553;1274;22112;-72
2024/03/09 12:30:39;;;;;;;3.90;3.50;;;;;;;12.75;45.67;95506.13;110566;1274;22249;-72
2024/03/09 12:33:10;;;;;;;4.20;3.50;;;;;;;12.48;46.08;95502.27;110652;1274;22114;-72
2024/03/09 12:35:41;;;;;;;4.10;3.60;;;;;;;12.23;46.63;95501.21;110639;1274;22806;-72
2024/03/09 12:38:14;;;;;;;4.10;3.20;;;;;;;12.01;47.30;95502.47;110658;1274;22132;-73
2024/03/09 12:40:47;;;;;;;4.00;3.50;;;;;;;11.81;47.02;95504.20;110582;1274;22220;-72
2024/03/09 12:43:16;;;;;;;3.20;2.90;;;;;;;11.62;48.08;95505.70;110614;1274;22092;-72
2024/03/09 12:45:52;;;;;;;4.10;3.30;;;;;;;11.52;48.67;95503.64;110593;1274;22121;-72
2024/03/09 12:48:23;;;;;;;5.50;3.30;;;;;;;11.37;48.56;95501.20;110470;1274;22247;-72
2024/03/09 12:50:55;;;;;;;4.30;3.10;;;;;;;11.23;49.28;95499.58;110467;1274;22875;-71
2024/03/09 12:53:24;;;;;;;3.90;2.90;;;;;;;11.14;50.18;95503.46;110615;1274;22115;-72
2024/03/09 12:55:52;;;;;;;3.90;3.50;;;;;;;11.10;50.00;95502.33;110580;1274;23056;-72
2024/03/09 12:58:21;;;;;;;2.90;2.50;;;;;;;11.11;50.34;95501.60;110643;1274;22160;-72
2024/03/09 13:00:53;;;;;;;2.90;2.50;;;;;;;11.09;49.96;95500.77;110638;1274;22244;-72
2024/03/09 13:03:24;;;;;;;3.50;3.20;;;;;;;11.10;49.73;95501.27;110571;1274;22032;-72
2024/03/09 13:05:52;;;;;;;4.60;3.10;;;;;;;11.47;50.56;95492.48;110641;1274;22090;-72
2024/03/09 13:08:26;;;;;;;3.80;3.30;;;;;;;12.87;48.74;95479.09;110613;1274;22133;-72
2024/03/09 13:10:55;;;;;;;3.70;3.00;;;;;;;14.43;45.77;95468.97;110659;1274;22222;-72
2024/03/09 13:13:23;;;;;;;4.60;3.30;;;;;;;15.64;42.56;95457.84;110642;1274;22133;-73
2024/03/09 13:15:52;;;;;;;3.40;3.10;;;;;;;16.61;40.45;95452.33;110647;1273;22235;-74
2024/03/09 13:18:24;;;;;;;3.50;3.20;;;;;;;16.65;39.62;95453.75;110663;1272;22858;-73
2024/03/09 13:20:53;;;;;;;4.00;3.00;;;;;;;16.05;38.70;95455.48;110659;1274;22213;-73
2024/03/09 13:23:21;;;;;;;3.60;3.00;;;;;;;15.37;39.66;95458.55;110619;1274;22928;-73
2024/03/09 13:25:51;;;;;;;3.80;3.20;;;;;;;14.73;39.91;95464.02;110671;1274;22104;-73
2024/03/09 13:28:19;;;;;;;7.00;4.90;;;;;;;14.15;39.98;95463.41;110651;1273;22738;-73
2024/03/09 13:30:48;;;;;;;3.80;3.00;;;;;;;13.54;41.78;95462.25;110657;1273;22181;-72
2024/03/09 13:33:16;;;;;;;3.00;2.70;;;;;;;13.17;43.04;95462.71;110647;1273;22276;-72
2024/03/09 13:35:45;;;;;;;4.00;3.10;;;;;;;12.94;43.86;95463.73;110590;1274;22106;-72
2024/03/09 13:38:13;;;;;;;3.20;2.90;;;;;;;12.66;44.66;95470.02;110658;1274;22169;-72
2024/03/09 13:40:42;;;;;;;3.40;3.10;;;;;;;12.39;44.71;95469.39;110658;1260;22163;-72
2024/03/09 13:43:12;;;;;;;3.30;3.00;;;;;;;12.26;45.65;95465.67;110665;1274;22287;-72
2024/03/09 13:45:41;;;;;;;4.20;3.50;;;;;;;12.26;46.36;95461.80;110664;1273;22772;-72
2024/03/09 13:48:11;;;;;;;15.50;7.80;;;;;;;12.24;46.66;95462.73;110615;1274;22114;-72
2024/03/09 13:50:40;;;;;;;8.20;5.40;;;;;;;12.27;46.64;95459.46;110644;1274;22109;-72
2024/03/09 13:53:09;;;;;;;6.10;4.30;;;;;;;12.45;46.79;95459.50;110631;1274;22115;-72